This is the latest recevied weather packets stored in our database for station/object K2ATL. If no packets are shown the sender has not sent any weather packets the latest 10 day(s).
| Time | Temp. | Humidity | Pressure | Rain* | Wind** | Luminosity | Snow |
|---|---|---|---|---|---|---|---|
| 1787664731 | 20.56° C | 71% | 1105.3 hPa | 0 mm | - | 51 W/m² | - |
| 1787664429 | 20.56° C | 72% | 1105.2 hPa | 0 mm | - | 35 W/m² | - |
| 1787664126 | 20.56° C | 69% | 1105.4 hPa | 0 mm | - | 35 W/m² | - |
| 1787663825 | 20.56° C | 70% | 1105.3 hPa | 0 mm | - | 31 W/m² | - |
| 1787663520 | 20.56° C | 70% | 1105.3 hPa | 0 mm | - | 30 W/m² | - |
| 1787663215 | 20.56° C | 69% | 1105.3 hPa | 0 mm | - | 28 W/m² | - |
| 1787662912 | 20.56° C | 70% | 1105.2 hPa | 0 mm | - | 28 W/m² | - |
| 1787662611 | 20° C | 72% | 1105.4 hPa | 0 mm | - | 37 W/m² | - |
| 1787662307 | 20° C | 73% | 1105.1 hPa | 0 mm | - | 27 W/m² | - |
| 1787662003 | 20° C | 73% | 1105.3 hPa | 0 mm | - | 26 W/m² | - |
| 1787661698 | 20° C | 72% | 1105.2 hPa | 0 mm | - | 25 W/m² | - |
| 1787661397 | 20.56° C | 72% | 1105.2 hPa | 0 mm | - | 24 W/m² | - |
| 1787661097 | 20° C | 69% | 1105.2 hPa | 0 mm | - | 24 W/m² | - |
| 1787660796 | 20° C | 72% | 1105.1 hPa | 0 mm | - | 23 W/m² | - |
| 1787660491 | 20° C | 70% | 1105 hPa | 0 mm | - | 22 W/m² | - |
| 1787660191 | 20° C | 71% | 1105.1 hPa | 0 mm | - | 22 W/m² | - |
| 1787659886 | 20° C | 71% | 1105.2 hPa | 0 mm | - | 21 W/m² | - |
| 1787659583 | 20° C | 71% | 1105 hPa | 0 mm | - | 20 W/m² | - |
| 1787659280 | 20° C | 70% | 1105 hPa | 0 mm | - | 19 W/m² | - |
| 1787658978 | 20.56° C | 69% | 1104.9 hPa | 0 mm | - | 18 W/m² | - |
| 1787658678 | 20.56° C | 67% | 1104.9 hPa | 0 mm | - | 17 W/m² | - |
| 1787658373 | 20.56° C | 69% | 1104.8 hPa | 0 mm | - | 16 W/m² | - |
| 1787658070 | 20.56° C | 68% | 1104.8 hPa | 0 mm | - | 14 W/m² | - |
| 1787657765 | 20.56° C | 68% | 1104.7 hPa | 0 mm | - | 13 W/m² | - |
| 1787657461 | 20.56° C | 67% | 1104.6 hPa | 0 mm | - | 11 W/m² | - |
* Rain latest hour (hover to see other rain measurements)
** Current wind speed in m/s (hover to see current wind gust speed)